Time;durP1;ratioP1;P1;durP2;ratioP2;P2;SDS_P1;SDS_P2;PMS_P1;PMS_P2;Temp;Humidity;BMP_temperature;BMP_pressure;BME280_temperature;BME280_humidity;BME280_pressure;Samples;Min_cycle;Max_cycle;Signal;HPM_P1;HPM_P2
2021/04/08 00:01:45;;;;;;;8.07;2.93;;;;;;;3.65;68.78;101404.25;6238347;28;20232;-53
2021/04/08 00:05:06;;;;;;;13.53;4.80;;;;;;;3.43;68.58;101409.59;6233910;28;20619;-55
2021/04/08 00:08:27;;;;;;;9.40;3.00;;;;;;;3.65;68.04;101406.81;6239263;28;20319;-53
2021/04/08 00:11:48;;;;;;;10.33;2.30;;;;;;;3.66;68.10;101412.84;6240815;28;20532;-52
2021/04/08 00:15:11;;;;;;;9.90;3.47;;;;;;;3.48;68.40;101405.47;6237910;28;20244;-54
2021/04/08 00:18:32;;;;;;;11.87;3.07;;;;;;;3.82;67.31;101414.13;6229556;28;20738;-56
2021/04/08 00:21:53;;;;;;;16.00;4.83;;;;;;;3.78;67.67;101409.72;6206400;28;20233;-55
2021/04/08 00:25:14;;;;;;;11.97;3.53;;;;;;;3.90;67.24;101420.41;6239054;28;20241;-53
2021/04/08 00:28:35;;;;;;;9.57;2.67;;;;;;;3.87;66.77;101426.31;6232569;28;20233;-56
2021/04/08 00:31:55;;;;;;;7.80;2.53;;;;;;;3.86;67.05;101423.72;6232447;28;20232;-54
2021/04/08 00:35:15;;;;;;;9.93;3.50;;;;;;;3.84;67.00;101430.50;6238835;28;20540;-54
2021/04/08 00:38:36;;;;;;;20.97;4.60;;;;;;;3.66;67.39;101429.16;6234959;28;20642;-53
2021/04/08 00:41:58;;;;;;;16.10;3.50;;;;;;;3.84;66.66;101436.56;6239525;28;20500;-51
2021/04/08 00:45:19;;;;;;;13.20;2.97;;;;;;;3.87;66.35;101433.19;6237572;28;20244;-50
2021/04/08 00:48:39;;;;;;;16.33;4.63;;;;;;;3.85;66.36;101440.88;6231298;28;20312;-51
2021/04/08 00:52:01;;;;;;;12.10;4.23;;;;;;;3.64;67.37;101443.69;6241530;28;20515;-52
2021/04/08 00:55:22;;;;;;;15.73;4.10;;;;;;;3.94;66.30;101450.56;6236510;28;20232;-53
2021/04/08 00:58:45;;;;;;;10.80;3.67;;;;;;;3.53;67.21;101448.53;6237413;28;20254;-54
2021/04/08 01:02:07;;;;;;;18.13;4.33;;;;;;;3.66;67.59;101448.91;6236903;28;20617;-53
2021/04/08 01:05:27;;;;;;;15.47;3.87;;;;;;;3.72;66.79;101465.44;6231985;28;20236;-56
2021/04/08 01:08:47;;;;;;;11.00;3.77;;;;;;;3.86;66.34;101462.38;6236033;28;20233;-50
2021/04/08 01:12:08;;;;;;;11.03;3.70;;;;;;;3.69;66.55;101465.31;6237197;28;20228;-54
2021/04/08 01:15:30;;;;;;;11.73;3.63;;;;;;;3.81;66.05;101475.09;6234423;28;20319;-52
2021/04/08 01:18:58;;;;;;;13.47;4.30;;;;;;;3.82;66.14;101482.03;6229823;28;20629;-53
2021/04/08 01:22:37;;;;;;;11.80;4.27;;;;;;;3.88;66.11;101487.34;6238544;28;20626;-52
2021/04/08 01:26:38;;;;;;;12.63;3.50;;;;;;;3.55;66.43;101492.38;6227934;28;20241;-55
2021/04/08 01:30:39;;;;;;;15.33;5.93;;;;;;;3.87;65.57;101498.47;6234400;28;20240;-51
2021/04/08 01:34:08;;;;;;;14.43;3.60;;;;;;;3.84;64.93;101495.81;6225114;28;20228;-51
2021/04/08 01:37:30;;;;;;;13.70;3.27;;;;;;;3.54;66.25;101498.34;6225329;28;20616;-56
2021/04/08 01:40:52;;;;;;;10.57;2.80;;;;;;;3.69;65.49;101491.09;6234201;28;20610;-55
2021/04/08 01:44:16;;;;;;;10.57;4.43;;;;;;;3.82;64.67;101500.06;6238578;28;20232;-54
2021/04/08 01:47:42;;;;;;;10.17;4.23;;;;;;;3.98;64.33;101493.66;6235252;28;20531;-55
2021/04/08 01:51:05;;;;;;;8.33;2.63;;;;;;;3.87;64.17;101520.81;6233932;28;20224;-56
2021/04/08 01:54:29;;;;;;;11.63;4.37;;;;;;;4.01;63.75;101524.66;6235618;28;20228;-54
2021/04/08 01:57:51;;;;;;;8.00;3.43;;;;;;;3.70;64.20;101504.81;6234844;28;20229;-52
2021/04/08 02:01:12;;;;;;;14.53;3.30;;;;;;;3.92;64.40;101524.41;6232907;28;20319;-56
2021/04/08 02:04:36;;;;;;;12.50;2.90;;;;;;;3.75;65.17;101524.75;6228194;28;20236;-53
2021/04/08 02:07:59;;;;;;;12.87;2.73;;;;;;;3.52;65.63;101531.78;6231891;28;20576;-53
2021/04/08 02:11:20;;;;;;;13.27;3.13;;;;;;;3.57;64.25;101524.22;6236467;28;20485;-54
2021/04/08 02:14:42;;;;;;;7.73;2.37;;;;;;;3.73;64.02;101523.84;6232827;28;20232;-54
2021/04/08 02:18:04;;;;;;;8.70;3.30;;;;;;;3.60;64.36;101532.00;6235482;28;20221;-50
2021/04/08 02:21:26;;;;;;;6.60;2.37;;;;;;;3.75;63.25;101529.91;6237697;28;20669;-53
2021/04/08 02:24:48;;;;;;;11.60;2.87;;;;;;;3.56;64.16;101540.47;6227170;28;20588;-55
2021/04/08 02:28:09;;;;;;;10.77;3.37;;;;;;;3.66;64.18;101549.34;6235149;28;20232;-51
2021/04/08 02:31:32;;;;;;;5.80;2.03;;;;;;;3.29;65.46;101561.94;6218409;28;20232;-51
2021/04/08 02:34:53;;;;;;;2.80;1.53;;;;;;;3.35;65.84;101569.00;6220489;28;20236;-53
2021/04/08 02:38:14;;;;;;;11.07;2.90;;;;;;;3.53;65.72;101564.44;6234132;28;20233;-54
2021/04/08 02:41:38;;;;;;;6.27;2.53;;;;;;;3.54;66.56;101573.03;6237914;28;20832;-54
2021/04/08 02:44:58;;;;;;;16.97;4.47;;;;;;;3.54;66.20;101567.88;6233466;28;20323;-52
2021/04/08 02:48:21;;;;;;;6.47;2.53;;;;;;;3.65;66.39;101576.84;6234396;28;20228;-54
2021/04/08 02:51:49;;;;;;;10.47;2.43;;;;;;;3.68;65.79;101583.78;6230421;28;20322;-52
2021/04/08 02:55:14;;;;;;;7.73;3.03;;;;;;;3.55;65.56;101585.09;6224090;28;20256;-53
2021/04/08 02:58:36;;;;;;;12.80;4.27;;;;;;;3.53;66.00;101586.75;6237205;28;20240;-54
2021/04/08 03:02:03;;;;;;;10.13;2.23;;;;;;;3.24;67.02;101584.09;6233799;28;20841;-50
2021/04/08 03:05:25;;;;;;;11.47;2.90;;;;;;;3.49;66.63;101596.09;6231806;28;20646;-53
2021/04/08 03:08:50;;;;;;;8.97;3.27;;;;;;;3.63;65.59;101604.25;6232623;28;20606;-53
2021/04/08 03:12:14;;;;;;;7.80;2.33;;;;;;;3.73;64.77;101602.84;6236270;28;20301;-49
2021/04/08 03:15:37;;;;;;;6.27;2.40;;;;;;;3.82;64.02;101599.66;6220558;28;20232;-53
2021/04/08 03:18:59;;;;;;;7.00;1.97;;;;;;;3.81;64.00;101595.34;6232708;28;20550;-52
2021/04/08 03:22:21;;;;;;;5.43;2.50;;;;;;;3.66;64.40;101608.59;6234347;28;20220;-52
2021/04/08 03:25:42;;;;;;;6.37;2.20;;;;;;;3.47;64.83;101617.44;6234749;28;20233;-51
2021/04/08 03:29:03;;;;;;;13.73;3.33;;;;;;;3.57;64.30;101616.94;6222635;28;20251;-52
2021/04/08 03:32:24;;;;;;;4.33;2.40;;;;;;;3.53;64.05;101631.41;6236660;28;20228;-49
2021/04/08 03:35:46;;;;;;;10.93;3.23;;;;;;;3.41;64.17;101632.69;6233375;28;20232;-56
2021/04/08 03:39:09;;;;;;;7.77;2.73;;;;;;;3.07;65.89;101636.72;6241055;28;20417;-50
2021/04/08 03:42:30;;;;;;;5.50;2.03;;;;;;;3.21;65.72;101639.75;6231789;28;20236;-51
2021/04/08 03:45:52;;;;;;;8.03;1.80;;;;;;;3.24;65.48;101645.88;6221963;28;20245;-54
2021/04/08 03:49:14;;;;;;;7.80;3.03;;;;;;;3.30;65.52;101646.09;6240047;28;20605;-54
2021/04/08 03:52:36;;;;;;;6.70;1.93;;;;;;;3.36;66.25;101648.00;6235562;28;20621;-53
2021/04/08 03:55:58;;;;;;;8.63;2.67;;;;;;;3.12;67.96;101650.59;6241021;28;20240;-53
2021/04/08 03:59:20;;;;;;;10.37;2.57;;;;;;;3.53;65.70;101653.72;6238781;28;20232;-55
2021/04/08 04:02:43;;;;;;;9.73;3.30;;;;;;;3.07;68.48;101667.59;6233522;28;20320;-51
2021/04/08 04:06:03;;;;;;;9.93;3.77;;;;;;;2.86;69.71;101658.28;6236224;28;20237;-53
2021/04/08 04:09:24;;;;;;;12.53;3.27;;;;;;;2.85;69.60;101666.84;6239558;28;20229;-55
2021/04/08 04:12:45;;;;;;;12.27;3.43;;;;;;;2.88;70.01;101679.78;6235363;28;20228;-53
2021/04/08 04:16:08;;;;;;;11.20;4.33;;;;;;;3.11;68.85;101675.47;6222017;28;20233;-56
2021/04/08 04:19:30;;;;;;;7.67;3.13;;;;;;;2.89;70.42;101681.56;6237251;28;20240;-53
2021/04/08 04:22:51;;;;;;;10.63;3.13;;;;;;;2.90;70.43;101685.00;6232064;28;20228;-56
2021/04/08 04:26:12;;;;;;;14.40;4.33;;;;;;;2.78;70.40;101685.44;6234478;28;20220;-51
2021/04/08 04:29:33;;;;;;;12.10;4.40;;;;;;;2.79;70.36;101688.88;6239658;28;20232;-52
2021/04/08 04:32:54;;;;;;;11.00;3.50;;;;;;;2.99;69.77;101697.34;6235792;28;20233;-53
2021/04/08 04:36:15;;;;;;;9.57;3.07;;;;;;;2.98;69.21;101698.16;6237936;28;20224;-52
2021/04/08 04:39:35;;;;;;;15.33;3.60;;;;;;;3.07;68.34;101698.47;6239504;28;20286;-54
2021/04/08 04:42:56;;;;;;;10.43;3.47;;;;;;;3.39;67.35;101709.00;6239493;28;20526;-52
2021/04/08 04:46:16;;;;;;;6.70;2.63;;;;;;;2.98;68.74;101701.59;6237523;28;22120;-51
2021/04/08 04:49:36;;;;;;;9.00;2.10;;;;;;;2.72;69.71;101705.78;6236813;28;20240;-55
2021/04/08 04:52:57;;;;;;;8.93;3.03;;;;;;;2.78;69.04;101708.59;6238662;28;20506;-52
2021/04/08 04:56:18;;;;;;;17.10;3.70;;;;;;;2.62;68.60;101719.09;6239220;28;20228;-55
2021/04/08 04:59:38;;;;;;;13.17;3.07;;;;;;;2.59;68.74;101719.00;6227125;28;20634;-51
2021/04/08 05:02:59;;;;;;;9.33;2.60;;;;;;;2.63;68.51;101726.88;6232018;28;20508;-52
2021/04/08 05:06:21;;;;;;;5.23;2.37;;;;;;;2.35;69.67;101730.09;6232444;28;20352;-54
2021/04/08 05:09:42;;;;;;;8.33;2.37;;;;;;;2.89;67.70;101735.59;6238157;28;20236;-53
2021/04/08 05:13:03;;;;;;;6.20;2.17;;;;;;;2.93;68.02;101744.31;6235017;28;20649;-52
2021/04/08 05:16:23;;;;;;;13.50;3.57;;;;;;;2.62;68.72;101749.97;6233630;28;20236;-49
2021/04/08 05:19:44;;;;;;;6.80;3.13;;;;;;;2.34;69.58;101748.91;6233259;28;20645;-53
2021/04/08 05:23:04;;;;;;;8.23;3.03;;;;;;;2.59;69.00;101749.88;6238169;28;20443;-52
2021/04/08 05:26:25;;;;;;;6.50;2.47;;;;;;;2.52;69.00;101747.06;6229060;28;20999;-52
2021/04/08 05:29:46;;;;;;;8.17;2.97;;;;;;;2.74;68.74;101759.03;6237174;28;20232;-50
2021/04/08 05:33:07;;;;;;;11.00;3.80;;;;;;;3.03;67.90;101756.69;6239507;28;20526;-55
2021/04/08 05:36:27;;;;;;;10.03;2.53;;;;;;;2.82;68.03;101764.47;6236751;28;20256;-55
2021/04/08 05:39:48;;;;;;;8.17;2.73;;;;;;;2.73;67.78;101769.25;6236588;28;20327;-54
2021/04/08 05:43:09;;;;;;;9.53;3.53;;;;;;;2.98;68.72;101768.50;6214461;28;20232;-55
2021/04/08 05:46:29;;;;;;;15.70;3.90;;;;;;;2.76;68.72;101774.53;6226721;28;20514;-52
2021/04/08 05:49:50;;;;;;;11.63;3.07;;;;;;;2.69;69.23;101769.97;6233677;28;20235;-53
2021/04/08 05:53:11;;;;;;;7.40;2.90;;;;;;;2.23;70.51;101786.16;6234912;28;20602;-50
2021/04/08 05:56:32;;;;;;;5.67;2.87;;;;;;;2.80;69.02;101786.69;6231678;28;20615;-56
2021/04/08 05:59:53;;;;;;;10.40;4.17;;;;;;;2.76;68.31;101789.97;6223804;28;20232;-54
2021/04/08 06:03:14;;;;;;;12.60;2.97;;;;;;;2.71;68.16;101796.63;6238440;28;20236;-48
2021/04/08 06:06:34;;;;;;;12.17;2.43;;;;;;;2.87;68.04;101796.41;6232190;28;20228;-53
2021/04/08 06:09:55;;;;;;;9.23;3.30;;;;;;;2.94;68.22;101802.66;6230196;28;20220;-55
2021/04/08 06:13:16;;;;;;;7.93;2.07;;;;;;;2.55;69.92;101810.59;6216801;28;20232;-56
2021/04/08 06:16:37;;;;;;;6.60;2.50;;;;;;;2.60;69.60;101811.66;6232127;28;20229;-51
2021/04/08 06:19:58;;;;;;;9.97;2.80;;;;;;;2.49;70.28;101807.78;6227982;28;20252;-54
2021/04/08 06:23:19;;;;;;;12.17;2.53;;;;;;;2.64;70.21;101817.81;6231182;28;20512;-50
2021/04/08 06:26:39;;;;;;;9.73;3.23;;;;;;;2.64;70.56;101820.38;6233096;28;21856;-56
2021/04/08 06:30:00;;;;;;;6.97;2.53;;;;;;;2.81;68.97;101828.72;6223843;28;20228;-55
2021/04/08 06:33:21;;;;;;;7.07;2.90;;;;;;;2.76;71.01;101825.97;6225124;28;20224;-51
2021/04/08 06:36:42;;;;;;;8.77;3.20;;;;;;;2.62;70.62;101839.97;6237561;28;20229;-56
2021/04/08 06:40:05;;;;;;;12.27;3.73;;;;;;;2.91;70.04;101829.16;6222028;28;20240;-54
2021/04/08 06:43:26;;;;;;;13.70;3.47;;;;;;;3.16;68.70;101845.53;6229460;28;20495;-56
2021/04/08 06:46:51;;;;;;;8.97;3.10;;;;;;;3.51;67.54;101845.97;6230985;28;20236;-57
2021/04/08 06:50:14;;;;;;;11.43;3.27;;;;;;;3.47;67.72;101838.91;6236762;28;20563;-54
2021/04/08 06:53:36;;;;;;;8.53;2.83;;;;;;;3.49;67.44;101851.06;6224927;28;20224;-53
2021/04/08 06:56:57;;;;;;;9.80;2.00;;;;;;;3.66;66.84;101838.75;6230222;28;20232;-54
2021/04/08 07:00:18;;;;;;;16.33;2.87;;;;;;;3.99;65.33;101845.91;6238533;28;20229;-54
2021/04/08 07:03:39;;;;;;;10.83;3.27;;;;;;;3.91;65.80;101849.94;6234254;28;20236;-53
2021/04/08 07:07:00;;;;;;;9.60;3.10;;;;;;;4.98;63.01;101859.41;6223089;28;20224;-52
2021/04/08 07:10:21;;;;;;;7.23;2.10;;;;;;;4.50;63.35;101861.38;6232427;28;20657;-52
2021/04/08 07:13:42;;;;;;;9.53;3.33;;;;;;;3.96;66.07;101865.56;6237600;28;20323;-54
2021/04/08 07:17:02;;;;;;;7.87;3.07;;;;;;;3.78;69.18;101861.53;6227808;28;20275;-54
2021/04/08 07:20:23;;;;;;;8.67;3.60;;;;;;;3.84;66.19;101855.69;6237903;28;20296;-52
2021/04/08 07:24:12;;;;;;;12.33;3.40;;;;;;;4.24;65.21;101868.25;6231938;28;20597;-53
2021/04/08 07:27:34;;;;;;;9.90;2.80;;;;;;;4.24;65.93;101880.28;6222818;28;20340;-50
2021/04/08 07:30:54;;;;;;;7.23;3.00;;;;;;;4.42;65.42;101885.16;6217719;28;20864;-56
2021/04/08 07:34:32;;;;;;;8.33;2.97;;;;;;;4.41;65.99;101881.72;6222940;28;20523;-55
2021/04/08 07:37:57;;;;;;;11.67;3.67;;;;;;;4.30;65.82;101883.06;6231240;28;20319;-57
2021/04/08 07:41:24;;;;;;;10.73;3.83;;;;;;;4.48;64.98;101891.41;6238546;28;20237;-57
2021/04/08 07:44:47;;;;;;;8.17;3.33;;;;;;;4.42;65.13;101887.75;6238353;28;20236;-56
2021/04/08 07:48:08;;;;;;;7.13;2.47;;;;;;;4.58;65.44;101909.78;6230077;28;20237;-57
2021/04/08 07:51:31;;;;;;;6.53;3.03;;;;;;;4.63;64.14;101906.50;6235001;28;20229;-55
2021/04/08 07:55:08;;;;;;;9.10;4.07;;;;;;;4.60;65.22;101905.56;6235023;28;20245;-55
2021/04/08 07:58:29;;;;;;;13.90;3.80;;;;;;;4.44;64.32;101917.94;6237869;28;20239;-55
2021/04/08 08:01:51;;;;;;;7.53;3.40;;;;;;;4.50;64.40;101910.41;6231493;28;20233;-54
2021/04/08 08:05:17;;;;;;;10.17;3.70;;;;;;;4.23;65.34;101917.22;6232388;28;20379;-56
2021/04/08 08:08:41;;;;;;;6.67;2.90;;;;;;;3.77;66.54;101918.16;6234064;28;20228;-55
2021/04/08 08:12:10;;;;;;;12.63;3.30;;;;;;;4.45;65.19;101916.22;6231314;28;20665;-54
2021/04/08 08:15:31;;;;;;;6.23;2.73;;;;;;;4.87;63.83;101929.66;6234294;28;20354;-57
2021/04/08 08:18:52;;;;;;;7.93;2.80;;;;;;;5.50;61.84;101928.13;6232028;28;20345;-58
2021/04/08 08:22:19;;;;;;;8.80;3.03;;;;;;;5.96;59.96;101919.13;6232776;28;20229;-58
2021/04/08 08:25:39;;;;;;;7.30;3.33;;;;;;;5.63;61.88;101939.72;6235236;28;20233;-54
2021/04/08 08:29:01;;;;;;;7.40;3.23;;;;;;;5.22;62.61;101937.66;6228190;28;20228;-54
2021/04/08 08:32:24;;;;;;;12.43;3.80;;;;;;;4.87;64.11;101932.25;6234409;28;20598;-56
2021/04/08 08:35:45;;;;;;;8.43;2.43;;;;;;;5.11;62.56;101937.28;6230214;28;20320;-56
2021/04/08 08:39:08;;;;;;;11.70;3.60;;;;;;;5.03;62.52;101935.31;6233781;28;20859;-55
2021/04/08 08:42:29;;;;;;;16.73;4.27;;;;;;;4.85;63.23;101931.31;6234303;28;20340;-57
2021/04/08 08:45:49;;;;;;;13.67;3.20;;;;;;;4.70;66.68;101946.31;6232078;28;20666;-52
2021/04/08 08:49:13;;;;;;;5.60;2.73;;;;;;;4.88;66.81;101944.31;6231772;28;20225;-57
2021/04/08 08:52:37;;;;;;;7.67;2.67;;;;;;;4.46;68.32;101948.91;6234587;28;20236;-57
2021/04/08 08:55:57;;;;;;;9.30;2.77;;;;;;;4.26;68.46;101936.22;6246543;28;20384;-54
2021/04/08 08:59:18;;;;;;;8.73;3.13;;;;;;;4.79;67.37;101937.97;6221894;28;20233;-57
2021/04/08 09:02:40;;;;;;;13.67;4.77;;;;;;;5.16;65.73;101937.47;6228975;28;20255;-51
2021/04/08 09:06:06;;;;;;;5.93;3.10;;;;;;;4.89;64.84;101932.31;6221285;28;20504;-55
2021/04/08 09:09:29;;;;;;;10.30;3.93;;;;;;;5.85;61.35;101934.31;6228511;28;20562;-57
2021/04/08 09:12:50;;;;;;;10.57;3.07;;;;;;;6.17;62.95;101933.50;6234069;28;20241;-57
2021/04/08 09:16:14;;;;;;;7.20;3.23;;;;;;;6.70;57.98;101941.75;6230342;28;20557;-59
2021/04/08 09:19:36;;;;;;;11.00;3.13;;;;;;;7.24;60.15;101940.44;6226342;28;20323;-54
2021/04/08 09:22:59;;;;;;;6.30;3.47;;;;;;;7.33;56.84;101939.75;6223017;28;20235;-54
2021/04/08 09:26:22;;;;;;;5.50;3.57;;;;;;;6.03;56.55;101936.59;6232407;28;20244;-58
2021/04/08 09:29:49;;;;;;;6.83;4.23;;;;;;;5.92;56.19;101940.53;6186367;28;20230;-54
2021/04/08 09:33:10;;;;;;;7.73;3.07;;;;;;;6.32;55.51;101939.09;6230505;28;20236;-52
2021/04/08 09:36:35;;;;;;;4.43;2.37;;;;;;;6.51;54.24;101930.06;6214830;28;20236;-56
2021/04/08 09:39:56;;;;;;;11.53;2.20;;;;;;;6.29;55.03;101937.28;6197542;28;20240;-55
2021/04/08 09:43:19;;;;;;;4.67;2.30;;;;;;;6.49;54.93;101927.47;6234487;28;20503;-57
2021/04/08 09:46:40;;;;;;;5.00;1.93;;;;;;;6.14;55.73;101929.09;6227194;28;20233;-56
2021/04/08 09:50:01;;;;;;;7.77;2.17;;;;;;;6.59;54.47;101933.75;6228068;28;20229;-58
2021/04/08 09:53:24;;;;;;;5.67;1.73;;;;;;;6.98;53.33;101938.13;6227860;28;20677;-54
2021/04/08 09:56:48;;;;;;;5.10;1.57;;;;;;;6.86;52.96;101927.47;6227137;28;20233;-55
2021/04/08 10:00:12;;;;;;;8.50;2.00;;;;;;;5.63;55.66;101944.88;6232440;28;20233;-52
2021/04/08 10:03:36;;;;;;;8.57;2.90;;;;;;;5.67;56.49;101957.94;6232466;28;20669;-52
2021/04/08 10:07:04;;;;;;;3.13;2.40;;;;;;;5.33;56.43;101956.94;6225724;28;20627;-56
2021/04/08 10:10:40;;;;;;;4.27;1.90;;;;;;;5.63;55.77;101971.59;6219118;28;20232;-58
2021/04/08 10:14:15;;;;;;;3.50;1.40;;;;;;;5.68;55.29;101990.72;6219770;28;20232;-56
2021/04/08 10:17:37;;;;;;;6.80;1.70;;;;;;;5.51;59.21;101999.66;6243548;28;20235;-56
2021/04/08 10:20:58;;;;;;;3.43;1.53;;;;;;;5.62;61.87;101998.28;6208809;28;20263;-54
2021/04/08 10:24:20;;;;;;;2.67;1.70;;;;;;;6.09;61.77;101988.47;6223787;28;20244;-54
2021/04/08 10:27:40;;;;;;;1.57;1.43;;;;;;;6.63;58.13;101981.25;6224109;28;20559;-57
2021/04/08 10:31:15;;;;;;;1.57;0.90;;;;;;;7.21;55.47;101977.53;6234508;28;20232;-54
2021/04/08 10:34:38;;;;;;;6.90;2.13;;;;;;;7.08;56.44;101980.69;6233692;28;20244;-55
2021/04/08 10:38:01;;;;;;;5.13;1.70;;;;;;;7.37;53.08;101968.41;6228246;28;20228;-56
2021/04/08 10:41:21;;;;;;;2.90;1.93;;;;;;;7.24;53.20;101972.41;6218898;28;20231;-55
2021/04/08 10:44:43;;;;;;;6.93;2.33;;;;;;;7.58;51.32;101975.78;6236129;28;21272;-54
2021/04/08 10:48:06;;;;;;;6.93;1.73;;;;;;;8.34;48.50;101972.09;6226823;28;20236;-56
2021/04/08 10:51:28;;;;;;;3.50;1.67;;;;;;;8.82;48.17;101964.34;6237667;28;20228;-55
2021/04/08 10:54:51;;;;;;;2.80;1.70;;;;;;;8.33;47.97;101959.97;6248871;28;20696;-56
2021/04/08 10:58:26;;;;;;;1.57;1.30;;;;;;;7.19;50.76;101958.50;6236161;28;20601;-54
2021/04/08 11:01:49;;;;;;;5.20;2.10;;;;;;;6.30;52.04;101956.25;6235537;28;20236;-56
2021/04/08 11:05:16;;;;;;;4.33;1.10;;;;;;;5.71;51.23;101975.28;6236315;28;20220;-56
2021/04/08 11:08:48;;;;;;;7.20;1.83;;;;;;;6.04;51.18;101969.34;6233287;28;20224;-58
2021/04/08 11:12:17;;;;;;;4.03;1.57;;;;;;;6.27;50.92;101951.88;6232979;28;20616;-55
2021/04/08 11:15:42;;;;;;;4.10;1.40;;;;;;;6.54;50.13;101950.00;6240429;28;20625;-55
2021/04/08 11:19:03;;;;;;;4.00;1.70;;;;;;;7.00;49.65;101956.28;6237835;28;20679;-56
2021/04/08 11:22:28;;;;;;;3.93;2.03;;;;;;;6.98;49.02;101953.69;6231641;28;20229;-55
2021/04/08 11:26:00;;;;;;;4.50;1.30;;;;;;;6.50;50.09;101957.66;6226997;28;20260;-56
2021/04/08 11:29:22;;;;;;;5.27;1.50;;;;;;;6.46;47.79;101968.78;6221742;28;20224;-58
2021/04/08 11:32:45;;;;;;;2.90;1.20;;;;;;;5.92;48.73;101964.69;6231417;28;20228;-55
2021/04/08 11:36:16;;;;;;;4.23;1.60;;;;;;;6.18;48.65;101966.28;6224679;28;20236;-56
2021/04/08 11:39:38;;;;;;;2.40;1.40;;;;;;;6.39;48.69;101971.16;6234141;28;20851;-56
2021/04/08 11:42:58;;;;;;;5.10;2.07;;;;;;;6.35;50.03;101974.50;6236805;28;20232;-55
2021/04/08 11:46:27;;;;;;;4.23;1.73;;;;;;;6.11;51.87;102006.63;6225842;28;20327;-55
2021/04/08 11:49:49;;;;;;;9.83;2.80;;;;;;;5.77;54.89;101984.91;6224818;28;20239;-55
2021/04/08 11:53:12;;;;;;;6.10;2.80;;;;;;;5.50;56.93;102000.47;6233277;28;20244;-53
2021/04/08 11:56:35;;;;;;;5.77;2.23;;;;;;;5.46;58.98;102016.72;6224437;28;20236;-54
2021/04/08 12:00:00;;;;;;;2.13;1.20;;;;;;;4.35;65.40;102005.31;6220520;28;20313;-57
2021/04/08 12:03:24;;;;;;;4.33;1.70;;;;;;;4.43;66.70;102003.00;6240425;28;20221;-55
2021/04/08 12:06:47;;;;;;;1.50;1.40;;;;;;;4.73;64.32;101995.47;6233859;28;20235;-55
2021/04/08 12:10:22;;;;;;;3.63;1.70;;;;;;;5.87;61.09;101996.41;6230017;28;20267;-55
2021/04/08 12:13:59;;;;;;;3.40;1.87;;;;;;;6.87;58.86;101987.06;6233666;28;20517;-53
2021/04/08 12:17:20;;;;;;;2.37;1.90;;;;;;;6.67;58.24;101994.34;6228516;28;20236;-55
2021/04/08 12:20:41;;;;;;;5.23;2.10;;;;;;;6.83;58.10;101992.16;6230900;28;20323;-55
2021/04/08 12:24:09;;;;;;;7.23;2.67;;;;;;;7.04;56.93;101990.09;6236863;28;20225;-56
2021/04/08 12:27:29;;;;;;;5.13;2.37;;;;;;;6.75;56.42;101989.38;6230459;28;20229;-57
2021/04/08 12:31:00;;;;;;;4.80;2.10;;;;;;;6.88;55.65;101988.84;6237044;28;20241;-57
2021/04/08 12:34:20;;;;;;;7.57;2.00;;;;;;;7.30;54.09;101985.50;6239710;28;20281;-56
2021/04/08 12:37:41;;;;;;;3.90;1.93;;;;;;;5.94;58.37;101995.75;6239556;28;20235;-53
2021/04/08 12:41:02;;;;;;;7.83;2.83;;;;;;;6.25;57.84;101988.91;6238047;28;20245;-50
2021/04/08 12:44:23;;;;;;;3.50;2.77;;;;;;;5.65;59.94;101988.03;6234639;28;20237;-53
2021/04/08 12:47:44;;;;;;;6.53;3.10;;;;;;;5.94;59.07;101977.66;6234357;28;20633;-57
2021/04/08 12:51:05;;;;;;;4.23;2.27;;;;;;;5.93;59.42;101986.25;6234825;28;20506;-57
2021/04/08 12:54:25;;;;;;;3.47;1.80;;;;;;;6.23;58.46;101983.69;6230218;28;20224;-53
2021/04/08 12:57:46;;;;;;;4.83;2.33;;;;;;;6.30;57.47;101970.09;6233183;28;20327;-57
2021/04/08 13:01:07;;;;;;;7.50;2.80;;;;;;;6.76;56.40;101972.09;6235212;28;20331;-52
2021/04/08 13:04:28;;;;;;;5.00;1.60;;;;;;;6.00;54.91;101985.63;6207928;28;20232;-53
2021/04/08 13:07:49;;;;;;;6.43;2.03;;;;;;;6.18;53.19;101976.63;6237334;28;20240;-56
2021/04/08 13:11:11;;;;;;;5.72;2.22;;;;;;;6.55;53.34;101969.84;6230974;28;20730;-57
2021/04/08 13:14:31;;;;;;;2.73;1.60;;;;;;;6.68;52.60;101962.44;6229098;28;20229;-56
2021/04/08 13:17:52;;;;;;;6.10;2.63;;;;;;;6.48;53.24;101969.69;6233356;28;20232;-56
2021/04/08 13:21:13;;;;;;;4.73;1.97;;;;;;;6.67;53.10;101970.19;6232298;28;20323;-53
2021/04/08 13:24:33;;;;;;;5.03;2.00;;;;;;;6.58;51.88;101970.81;6227084;28;20224;-57
2021/04/08 13:27:54;;;;;;;6.90;2.53;;;;;;;6.98;50.30;101961.44;6228161;28;20252;-55
2021/04/08 13:31:15;;;;;;;6.07;2.03;;;;;;;6.65;51.07;101964.97;6233164;28;20319;-57
2021/04/08 13:34:36;;;;;;;3.70;2.47;;;;;;;6.67;50.88;101959.81;6235465;28;20598;-53
2021/04/08 13:37:59;;;;;;;9.30;2.13;;;;;;;6.03;51.43;101971.91;6233544;28;20232;-56
2021/04/08 13:41:20;;;;;;;3.03;1.57;;;;;;;6.27;50.41;101961.38;6231365;28;20765;-57
2021/04/08 13:44:41;;;;;;;3.13;2.17;;;;;;;6.16;50.22;101961.06;6227817;28;20521;-57
2021/04/08 13:48:01;;;;;;;4.70;2.27;;;;;;;6.62;49.87;101956.22;6233337;28;20315;-56
2021/04/08 13:51:22;;;;;;;4.67;1.60;;;;;;;7.20;46.89;101949.00;6230170;28;20606;-58
2021/04/08 13:54:44;;;;;;;5.93;2.00;;;;;;;7.20;47.36;101943.81;6233210;28;20274;-55
2021/04/08 13:58:04;;;;;;;6.40;1.93;;;;;;;6.68;47.97;101941.72;6228254;28;20415;-58
2021/04/08 14:01:25;;;;;;;4.40;2.10;;;;;;;6.57;48.75;101944.88;6226667;28;20502;-57
2021/04/08 14:04:45;;;;;;;3.20;1.80;;;;;;;6.58;48.22;101949.22;6227778;28;20511;-56
2021/04/08 14:08:06;;;;;;;5.57;2.20;;;;;;;7.24;47.12;101941.31;6226803;28;20232;-56
2021/04/08 14:11:28;;;;;;;4.43;2.10;;;;;;;6.64;47.10;101957.16;6234412;28;20319;-53
2021/04/08 14:14:49;;;;;;;9.03;2.23;;;;;;;6.62;47.23;101938.97;6230617;28;20225;-55
2021/04/08 14:18:09;;;;;;;3.87;1.70;;;;;;;6.84;47.59;101940.41;6235938;28;20577;-55
2021/04/08 14:21:30;;;;;;;4.27;1.60;;;;;;;6.89;47.77;101923.25;6231586;28;20233;-54
2021/04/08 14:24:50;;;;;;;3.77;1.97;;;;;;;6.68;47.76;101939.13;6231756;28;20228;-57
2021/04/08 14:28:12;;;;;;;6.80;2.30;;;;;;;6.42;48.90;101920.38;6232636;28;20236;-55
2021/04/08 14:31:32;;;;;;;5.97;1.87;;;;;;;6.41;48.47;101913.44;6228775;28;20232;-56
2021/04/08 14:34:53;;;;;;;4.53;3.00;;;;;;;6.32;48.82;101913.22;6232717;28;20734;-53
2021/04/08 14:38:14;;;;;;;5.20;2.23;;;;;;;6.34;48.20;101921.00;6229571;28;20232;-58
2021/04/08 14:41:35;;;;;;;3.83;1.97;;;;;;;6.55;47.65;101907.72;6227429;28;20232;-51
2021/04/08 14:44:56;;;;;;;5.50;2.03;;;;;;;6.55;47.51;101902.56;6231204;28;20244;-56
2021/04/08 14:48:17;;;;;;;4.63;2.83;;;;;;;6.69;47.32;101898.59;6227644;28;20252;-54
2021/04/08 14:51:38;;;;;;;7.73;3.67;;;;;;;6.87;47.12;101898.16;6232829;28;20233;-55
2021/04/08 14:54:58;;;;;;;6.77;2.63;;;;;;;6.86;46.59;101899.88;6233612;28;20601;-54
2021/04/08 14:58:19;;;;;;;5.57;2.20;;;;;;;6.94;46.31;101896.56;6233142;28;20503;-55
2021/04/08 15:01:41;;;;;;;3.30;1.87;;;;;;;6.35;45.98;101897.75;6232049;28;20525;-57
2021/04/08 15:05:01;;;;;;;8.67;2.97;;;;;;;6.43;44.69;101887.59;6231699;28;20237;-55
2021/04/08 15:08:22;;;;;;;4.17;1.90;;;;;;;6.08;44.73;101884.97;6232246;28;20829;-58
2021/04/08 15:11:42;;;;;;;6.03;2.83;;;;;;;6.44;44.43;101890.22;6231248;28;20224;-52
2021/04/08 15:15:05;;;;;;;3.20;1.87;;;;;;;6.85;44.09;101884.31;6235252;28;20232;-52
2021/04/08 15:18:26;;;;;;;4.23;2.47;;;;;;;6.53;45.12;101883.53;6238241;28;20251;-57
2021/04/08 15:21:47;;;;;;;5.00;2.63;;;;;;;6.37;45.76;101879.69;6231696;28;20232;-55
2021/04/08 15:25:09;;;;;;;5.87;3.90;;;;;;;6.58;45.81;101869.00;6234436;28;20236;-54
2021/04/08 15:28:29;;;;;;;5.50;2.60;;;;;;;6.47;45.85;101869.59;6236962;28;20264;-53
2021/04/08 15:31:51;;;;;;;5.97;3.10;;;;;;;6.94;45.46;101855.13;6239459;28;20233;-56
2021/04/08 15:35:14;;;;;;;4.33;2.73;;;;;;;7.20;45.28;101851.41;6231471;28;20513;-56
2021/04/08 15:38:35;;;;;;;8.80;3.63;;;;;;;6.82;45.95;101858.31;6231937;28;20232;-57
2021/04/08 15:41:56;;;;;;;6.60;3.10;;;;;;;7.00;45.34;101852.69;6229239;28;20315;-55
2021/04/08 15:45:17;;;;;;;6.83;3.70;;;;;;;6.78;47.32;101852.19;6216738;28;20238;-56
2021/04/08 15:48:38;;;;;;;7.23;2.63;;;;;;;6.51;48.78;101857.59;6234115;28;20331;-54
2021/04/08 15:51:59;;;;;;;3.33;3.03;;;;;;;6.41;48.96;101874.63;6225422;28;20233;-54